createdAt,value
2023-05-09T00:01:07.883Z,15.80
2023-05-09T00:03:35.528Z,15.20
2023-05-09T00:06:04.739Z,15.13
2023-05-09T00:08:32.487Z,15.83
2023-05-09T00:11:00.294Z,15.40
2023-05-09T00:13:28.469Z,13.90
2023-05-09T00:15:57.495Z,14.60
2023-05-09T00:18:25.801Z,15.83
2023-05-09T00:20:53.730Z,15.70
2023-05-09T00:23:23.160Z,15.83
2023-05-09T00:25:51.578Z,15.20
2023-05-09T00:28:20.095Z,15.07
2023-05-09T00:30:47.971Z,15.20
2023-05-09T00:33:16.172Z,15.63
2023-05-09T00:35:44.329Z,15.50
2023-05-09T00:38:12.380Z,14.17
2023-05-09T00:40:42.238Z,15.10
2023-05-09T00:43:10.496Z,13.83
2023-05-09T00:45:38.454Z,15.90
2023-05-09T00:48:07.756Z,15.23
2023-05-09T00:50:36.002Z,15.00
2023-05-09T00:53:05.047Z,15.50
2023-05-09T00:55:33.298Z,15.50
2023-05-09T00:58:02.914Z,15.50
2023-05-09T01:00:30.975Z,16.37
2023-05-09T01:02:59.092Z,15.43
2023-05-09T01:05:35.045Z,16.15
2023-05-09T01:08:11.665Z,15.20
2023-05-09T01:10:45.241Z,15.60
2023-05-09T01:13:21.854Z,15.70
2023-05-09T01:15:56.275Z,15.67
2023-05-09T01:18:31.614Z,15.73
2023-05-09T01:21:05.100Z,17.03
2023-05-09T01:24:03.927Z,16.90
2023-05-09T01:26:45.336Z,16.23
2023-05-09T01:29:35.324Z,17.97
2023-05-09T01:32:08.483Z,17.93
2023-05-09T01:34:39.742Z,17.10
2023-05-09T01:37:08.737Z,16.33
2023-05-09T01:39:41.252Z,16.87
2023-05-09T01:42:12.307Z,16.73
2023-05-09T01:44:44.709Z,15.20
2023-05-09T01:47:12.903Z,16.80
2023-05-09T01:49:43.907Z,17.13
2023-05-09T01:52:15.807Z,16.77
2023-05-09T01:54:45.010Z,18.50
2023-05-09T01:57:13.467Z,17.20
2023-05-09T01:59:47.474Z,19.00
2023-05-09T02:02:16.102Z,19.13
2023-05-09T02:04:45.163Z,17.97
2023-05-09T02:07:13.738Z,17.83
2023-05-09T02:09:41.828Z,19.03
2023-05-09T02:12:09.547Z,18.17
2023-05-09T02:14:37.269Z,18.07
2023-05-09T02:17:07.054Z,19.47
2023-05-09T02:19:35.984Z,20.10
2023-05-09T02:22:04.826Z,20.27
2023-05-09T02:24:35.057Z,20.73
2023-05-09T02:27:04.805Z,20.63
2023-05-09T02:29:40.410Z,22.73
2023-05-09T02:32:13.955Z,22.00
2023-05-09T02:34:43.615Z,20.20
2023-05-09T02:37:12.394Z,21.47
2023-05-09T02:39:41.238Z,22.40
2023-05-09T02:42:11.368Z,19.67
2023-05-09T02:44:40.007Z,19.93
2023-05-09T02:47:08.999Z,21.83
2023-05-09T02:49:38.590Z,20.33
2023-05-09T02:52:06.852Z,18.93
2023-05-09T02:54:35.636Z,19.50
2023-05-09T02:57:03.989Z,20.33
2023-05-09T02:59:32.637Z,20.83
2023-05-09T03:02:01.300Z,21.30
2023-05-09T03:04:29.602Z,20.77
2023-05-09T03:06:59.185Z,19.80
2023-05-09T03:09:27.170Z,20.60
2023-05-09T03:11:56.294Z,21.20
2023-05-09T03:14:24.822Z,19.20
2023-05-09T03:16:53.498Z,20.37
2023-05-09T03:19:21.752Z,20.70
2023-05-09T03:21:50.660Z,19.13
2023-05-09T03:24:19.713Z,19.30
2023-05-09T03:26:47.380Z,18.00
2023-05-09T03:29:15.006Z,20.27
2023-05-09T03:31:42.703Z,20.30
2023-05-09T03:34:15.044Z,19.83
2023-05-09T03:36:43.643Z,19.47
2023-05-09T03:39:11.582Z,18.93
2023-05-09T03:41:41.181Z,18.70
2023-05-09T03:44:09.079Z,19.27
2023-05-09T03:46:36.802Z,18.23
2023-05-09T03:49:05.380Z,18.70
2023-05-09T03:51:33.506Z,18.87
2023-05-09T03:54:01.244Z,19.00
2023-05-09T03:56:28.970Z,18.20
2023-05-09T03:58:58.013Z,19.40
2023-05-09T04:01:26.737Z,19.27
2023-05-09T04:03:54.848Z,18.70
2023-05-09T04:06:22.678Z,18.57
2023-05-09T04:08:50.615Z,17.73
2023-05-09T04:11:18.365Z,19.50
2023-05-09T04:13:46.031Z,18.13
2023-05-09T04:16:15.079Z,19.50
2023-05-09T04:18:42.974Z,20.43
2023-05-09T04:21:10.686Z,19.27
2023-05-09T04:23:38.868Z,18.33
2023-05-09T04:26:07.428Z,18.10
2023-05-09T04:28:35.217Z,19.40
2023-05-09T04:31:03.062Z,19.90
2023-05-09T04:33:32.315Z,20.83
2023-05-09T04:36:00.018Z,18.50
2023-05-09T04:38:27.788Z,21.30
2023-05-09T04:41:02.236Z,18.93
2023-05-09T04:43:31.145Z,19.77
2023-05-09T04:45:58.942Z,18.73
2023-05-09T04:48:26.669Z,17.87
2023-05-09T04:50:55.756Z,19.70
2023-05-09T04:53:23.508Z,18.07
2023-05-09T04:55:52.049Z,18.10
2023-05-09T04:58:19.995Z,18.80
2023-05-09T05:00:47.880Z,17.67
2023-05-09T05:03:15.546Z,17.27
2023-05-09T05:05:43.250Z,17.97
2023-05-09T05:08:12.394Z,16.33
2023-05-09T05:10:40.123Z,16.53
2023-05-09T05:13:07.886Z,17.47
2023-05-09T05:15:35.601Z,16.70
2023-05-09T05:18:03.345Z,16.17
2023-05-09T05:20:31.108Z,18.17
2023-05-09T05:22:58.848Z,16.63
2023-05-09T05:25:28.191Z,16.87
2023-05-09T05:27:56.012Z,15.80
2023-05-09T05:30:23.823Z,16.23
2023-05-09T05:32:51.671Z,15.90
2023-05-09T05:35:22.516Z,15.97
2023-05-09T05:37:50.384Z,15.80
2023-05-09T05:40:18.229Z,15.87
2023-05-09T05:42:47.343Z,15.87
2023-05-09T05:45:15.407Z,15.00
2023-05-09T05:47:43.243Z,18.30
2023-05-09T05:50:12.072Z,17.30
2023-05-09T05:52:40.110Z,18.23
2023-05-09T05:55:08.649Z,19.40
2023-05-09T05:57:37.769Z,19.03
2023-05-09T06:00:10.643Z,20.50
2023-05-09T06:02:38.734Z,21.23
2023-05-09T06:05:08.319Z,20.30
2023-05-09T06:07:36.034Z,21.20
2023-05-09T06:10:04.568Z,20.03
2023-05-09T06:12:32.349Z,20.70
2023-05-09T06:15:00.587Z,19.23
2023-05-09T06:17:29.842Z,20.47
2023-05-09T06:19:57.650Z,19.10
2023-05-09T06:22:25.507Z,18.03
2023-05-09T06:24:53.450Z,19.40
2023-05-09T06:27:21.364Z,19.70
2023-05-09T06:29:49.086Z,19.50
2023-05-09T06:32:18.755Z,20.00
2023-05-09T06:34:48.215Z,19.30
2023-05-09T06:37:15.913Z,18.03
2023-05-09T06:39:43.608Z,17.30
2023-05-09T06:42:11.352Z,18.10
2023-05-09T06:44:39.088Z,18.93
2023-05-09T06:47:06.939Z,18.63
2023-05-09T06:49:34.609Z,20.47
2023-05-09T06:52:03.709Z,18.67
2023-05-09T06:54:31.581Z,17.47
2023-05-09T06:56:59.282Z,18.00
2023-05-09T06:59:27.045Z,18.00
2023-05-09T07:01:54.824Z,16.70
2023-05-09T07:04:22.536Z,18.37
2023-05-09T07:06:50.288Z,18.00
2023-05-09T07:09:20.556Z,16.70
2023-05-09T07:11:48.267Z,17.27
2023-05-09T07:14:16.146Z,17.40
2023-05-09T07:16:43.941Z,17.53
2023-05-09T07:19:11.663Z,18.57
2023-05-09T07:21:39.492Z,18.50
2023-05-09T07:24:07.883Z,18.77
2023-05-09T07:26:37.750Z,17.97
2023-05-09T07:29:05.642Z,18.30
2023-05-09T07:31:35.312Z,16.60
2023-05-09T07:34:05.476Z,16.87
2023-05-09T07:36:34.838Z,15.07
2023-05-09T07:39:03.383Z,13.73
2023-05-09T07:41:31.210Z,14.53
2023-05-09T07:44:00.295Z,15.53
2023-05-09T07:46:28.138Z,15.73
2023-05-09T07:48:56.016Z,16.17
2023-05-09T07:51:24.014Z,15.50
2023-05-09T07:53:51.890Z,15.67
2023-05-09T07:56:19.847Z,14.10
2023-05-09T07:58:47.665Z,15.00
2023-05-09T08:01:16.793Z,12.80
2023-05-09T08:03:44.658Z,12.23
2023-05-09T08:06:12.408Z,12.50
2023-05-09T08:08:40.181Z,12.87
2023-05-09T08:11:08.044Z,14.20
2023-05-09T08:13:36.082Z,10.70
2023-05-09T08:16:03.920Z,12.07
2023-05-09T08:18:33.328Z,13.60
2023-05-09T08:21:01.195Z,12.03
2023-05-09T08:23:30.347Z,11.60
2023-05-09T08:25:59.136Z,12.43
2023-05-09T08:28:28.802Z,11.23
2023-05-09T08:30:57.911Z,10.77
2023-05-09T08:33:25.897Z,6.80
2023-05-09T08:35:56.312Z,9.40
2023-05-09T08:38:24.420Z,9.67
2023-05-09T08:40:52.264Z,9.50
2023-05-09T08:43:25.056Z,10.10
2023-05-09T08:45:58.396Z,11.10
2023-05-09T08:48:27.118Z,11.70
2023-05-09T08:50:57.370Z,10.60
2023-05-09T08:53:25.316Z,14.53
2023-05-09T08:55:53.475Z,15.30
2023-05-09T08:58:22.771Z,14.87
2023-05-09T09:00:51.506Z,13.73
2023-05-09T09:03:19.316Z,13.67
2023-05-09T09:05:48.634Z,12.83
2023-05-09T09:08:19.894Z,12.47
2023-05-09T09:10:48.475Z,13.53
2023-05-09T09:13:18.030Z,13.13
2023-05-09T09:15:47.971Z,11.87
2023-05-09T09:18:22.035Z,11.27
2023-05-09T09:20:53.017Z,14.20
2023-05-09T09:23:26.037Z,12.77
2023-05-09T09:25:59.706Z,11.27
2023-05-09T09:28:28.017Z,13.63
2023-05-09T09:30:55.814Z,11.40
2023-05-09T09:33:24.864Z,10.63
2023-05-09T09:35:54.075Z,11.40
2023-05-09T09:38:24.237Z,8.90
2023-05-09T09:40:56.176Z,9.93
2023-05-09T09:43:29.052Z,10.60
2023-05-09T09:45:57.187Z,10.40
2023-05-09T09:48:26.610Z,9.67
2023-05-09T09:50:56.822Z,8.93
2023-05-09T09:53:30.317Z,9.73
2023-05-09T09:55:58.649Z,9.67
2023-05-09T09:58:26.582Z,10.17
2023-05-09T10:01:08.129Z,10.60
2023-05-09T10:03:37.367Z,10.73
2023-05-09T10:06:05.681Z,11.50
2023-05-09T10:08:34.770Z,10.80
2023-05-09T10:11:02.802Z,9.67
2023-05-09T10:13:30.836Z,11.57
2023-05-09T10:16:00.413Z,11.80
2023-05-09T10:18:31.059Z,13.07
2023-05-09T10:21:02.717Z,13.37
2023-05-09T10:23:31.845Z,12.07
2023-05-09T10:26:07.045Z,11.80
2023-05-09T10:28:39.851Z,8.83
2023-05-09T10:31:16.222Z,11.00
2023-05-09T10:33:48.530Z,10.00
2023-05-09T10:36:18.638Z,11.50
2023-05-09T10:38:47.749Z,12.17
2023-05-09T10:41:17.347Z,13.20
2023-05-09T10:43:46.112Z,11.00
2023-05-09T10:46:14.841Z,11.57
2023-05-09T10:48:43.968Z,10.47
2023-05-09T10:51:13.556Z,11.80
2023-05-09T10:53:43.607Z,13.07
2023-05-09T10:56:26.546Z,12.60
2023-05-09T10:58:54.571Z,13.10
2023-05-09T11:01:35.044Z,10.00
2023-05-09T11:04:09.470Z,11.70
2023-05-09T11:06:47.670Z,11.20
2023-05-09T11:09:28.263Z,10.13
2023-05-09T11:11:59.076Z,12.03
2023-05-09T11:14:33.924Z,9.90
2023-05-09T11:17:05.358Z,7.80
2023-05-09T11:19:38.624Z,7.97
2023-05-09T11:22:14.775Z,9.97
2023-05-09T11:24:46.672Z,7.80
2023-05-09T11:27:21.424Z,7.67
2023-05-09T11:29:52.235Z,6.07
2023-05-09T11:32:20.640Z,6.40
2023-05-09T11:34:48.561Z,6.37
2023-05-09T11:37:19.240Z,4.43
2023-05-09T11:39:58.535Z,4.63
2023-05-09T11:42:29.333Z,5.10
2023-05-09T11:44:57.410Z,5.80
2023-05-09T11:47:26.127Z,5.30
2023-05-09T11:49:53.878Z,4.50
2023-05-09T11:52:21.900Z,4.37
2023-05-09T11:54:49.715Z,4.73
2023-05-09T11:57:18.408Z,3.77
2023-05-09T11:59:47.461Z,3.60
2023-05-09T12:02:15.533Z,3.40
2023-05-09T12:04:44.256Z,3.70
2023-05-09T12:07:13.217Z,3.63
2023-05-09T12:09:41.007Z,3.00
2023-05-09T12:12:14.863Z,3.20
2023-05-09T12:14:42.919Z,2.57
2023-05-09T12:17:12.337Z,3.43
2023-05-09T12:19:40.044Z,3.37
2023-05-09T12:22:07.720Z,3.27
2023-05-09T12:24:37.707Z,3.50
2023-05-09T12:27:07.870Z,2.57
2023-05-09T12:29:36.559Z,2.50
2023-05-09T12:32:04.569Z,2.20
2023-05-09T12:34:33.728Z,2.43
2023-05-09T12:37:03.703Z,2.47
2023-05-09T12:39:31.487Z,2.70
2023-05-09T12:42:01.990Z,2.53
2023-05-09T12:44:30.537Z,2.47
2023-05-09T12:47:00.067Z,2.03
2023-05-09T12:49:28.247Z,2.30
2023-05-09T12:52:00.286Z,2.50
2023-05-09T12:54:30.229Z,2.13
2023-05-09T12:56:59.664Z,2.83
2023-05-09T12:59:29.305Z,2.13
2023-05-09T13:01:59.064Z,2.70
2023-05-09T13:04:29.035Z,2.10
2023-05-09T13:07:00.655Z,2.30
2023-05-09T13:09:29.665Z,2.40
2023-05-09T13:11:57.431Z,2.50
2023-05-09T13:14:25.173Z,2.20
2023-05-09T13:16:52.866Z,2.40
2023-05-09T13:19:20.785Z,2.43
2023-05-09T13:21:49.088Z,3.10
2023-05-09T13:24:18.144Z,3.20
2023-05-09T13:26:45.850Z,2.87
2023-05-09T13:29:13.882Z,3.23
2023-05-09T13:31:41.658Z,3.60
2023-05-09T13:34:09.341Z,3.50
2023-05-09T13:36:37.030Z,3.07
2023-05-09T13:39:04.942Z,3.10
2023-05-09T13:41:34.539Z,3.03
2023-05-09T13:44:03.615Z,3.07
2023-05-09T13:46:31.961Z,2.90
2023-05-09T13:49:00.346Z,3.23
2023-05-09T13:51:29.095Z,2.70
2023-05-09T13:53:56.758Z,2.50
2023-05-09T13:56:26.304Z,2.67
2023-05-09T13:58:55.353Z,4.00
2023-05-09T14:01:23.336Z,2.90
2023-05-09T14:03:51.240Z,2.93
2023-05-09T14:06:19.032Z,3.70
2023-05-09T14:08:46.851Z,3.10
2023-05-09T14:11:14.537Z,3.40
2023-05-09T14:13:42.405Z,3.50
2023-05-09T14:16:11.499Z,3.20
2023-05-09T14:18:39.318Z,2.80
2023-05-09T14:21:08.028Z,3.20
2023-05-09T14:23:35.786Z,3.17
2023-05-09T14:26:03.686Z,3.10
2023-05-09T14:28:31.562Z,3.13
2023-05-09T14:30:59.283Z,3.00
2023-05-09T14:33:29.154Z,2.70
2023-05-09T14:35:57.031Z,3.37
2023-05-09T14:38:24.785Z,2.50
2023-05-09T14:40:52.503Z,2.50
2023-05-09T14:43:21.557Z,2.17
2023-05-09T14:45:49.429Z,2.17
2023-05-09T14:48:17.387Z,1.87
2023-05-09T14:50:47.044Z,2.13
2023-05-09T14:53:15.024Z,1.97
2023-05-09T14:55:42.857Z,2.47
2023-05-09T14:58:13.322Z,2.00
2023-05-09T15:00:41.178Z,2.40
2023-05-09T15:03:09.029Z,2.00
2023-05-09T15:05:36.834Z,1.83
2023-05-09T15:08:07.011Z,1.90
2023-05-09T15:10:34.872Z,2.30
2023-05-09T15:13:05.477Z,2.00
2023-05-09T15:15:33.624Z,1.80
2023-05-09T15:18:02.297Z,1.90
2023-05-09T15:20:30.292Z,2.03
2023-05-09T15:22:57.994Z,1.90
2023-05-09T15:25:27.714Z,3.10
2023-05-09T15:27:55.572Z,2.47
2023-05-09T15:30:23.268Z,2.00
2023-05-09T15:32:51.050Z,1.80
2023-05-09T15:35:19.170Z,1.60
2023-05-09T15:37:46.894Z,2.17
2023-05-09T15:40:14.974Z,2.00
2023-05-09T15:42:44.552Z,1.77
2023-05-09T15:45:12.610Z,2.00
2023-05-09T15:47:40.472Z,1.90
2023-05-09T15:50:09.348Z,2.00
2023-05-09T15:52:37.288Z,1.80
2023-05-09T15:55:05.577Z,2.13
2023-05-09T15:57:33.301Z,1.90
2023-05-09T16:00:02.419Z,2.10
2023-05-09T16:02:30.217Z,2.40
2023-05-09T16:04:58.051Z,2.20
2023-05-09T16:07:27.185Z,2.20
2023-05-09T16:09:54.934Z,2.10
2023-05-09T16:12:22.650Z,2.10
2023-05-09T16:14:50.450Z,2.20
2023-05-09T16:17:19.537Z,2.20
2023-05-09T16:19:47.246Z,2.17
2023-05-09T16:22:14.975Z,2.30
2023-05-09T16:24:43.877Z,2.77
2023-05-09T16:27:11.684Z,2.47
2023-05-09T16:29:39.429Z,2.37
2023-05-09T16:32:08.108Z,2.17
2023-05-09T16:34:37.468Z,2.20
2023-05-09T16:37:05.226Z,2.50
2023-05-09T16:39:33.003Z,3.40
2023-05-09T16:42:00.706Z,2.70
2023-05-09T16:44:28.480Z,3.17
2023-05-09T16:46:56.360Z,3.17
2023-05-09T16:49:24.331Z,2.27
2023-05-09T16:51:53.384Z,4.10
2023-05-09T16:54:21.439Z,2.73
2023-05-09T16:56:49.145Z,2.70
2023-05-09T16:59:17.449Z,2.83
2023-05-09T17:01:46.395Z,3.07
2023-05-09T17:04:14.290Z,3.43
2023-05-09T17:06:42.152Z,3.80
2023-05-09T17:09:11.375Z,3.60
2023-05-09T17:11:39.096Z,3.90
2023-05-09T17:14:06.755Z,4.83
2023-05-09T17:16:36.551Z,4.57
2023-05-09T17:19:05.760Z,5.60
2023-05-09T17:21:33.423Z,4.30
2023-05-09T17:24:02.120Z,4.47
2023-05-09T17:26:31.724Z,3.80
2023-05-09T17:28:59.414Z,3.60
2023-05-09T17:31:27.432Z,2.97
2023-05-09T17:33:55.261Z,2.70
2023-05-09T17:36:22.985Z,2.63
2023-05-09T17:38:50.674Z,2.10
2023-05-09T17:41:18.347Z,1.67
2023-05-09T17:43:47.406Z,1.83
2023-05-09T17:46:16.081Z,2.23
2023-05-09T17:48:45.156Z,1.80
2023-05-09T17:51:12.903Z,2.37
2023-05-09T17:53:40.824Z,1.90
2023-05-09T17:56:08.684Z,2.07
2023-05-09T17:58:36.613Z,2.20
2023-05-09T18:01:05.760Z,2.27
2023-05-09T18:03:33.593Z,2.40
2023-05-09T18:06:01.756Z,2.37
2023-05-09T18:08:30.072Z,2.10
2023-05-09T18:10:58.206Z,2.27
2023-05-09T18:13:26.187Z,2.27
2023-05-09T18:15:55.080Z,2.00
2023-05-09T18:18:24.331Z,1.87
2023-05-09T18:20:52.265Z,2.80
2023-05-09T18:23:20.469Z,2.20
2023-05-09T18:25:48.585Z,2.40
2023-05-09T18:28:17.804Z,2.13
2023-05-09T18:30:45.603Z,2.20
2023-05-09T18:33:13.503Z,2.93
2023-05-09T18:35:42.791Z,2.87
2023-05-09T18:38:10.626Z,2.60
2023-05-09T18:40:38.354Z,2.70
2023-05-09T18:43:06.567Z,2.60
2023-05-09T18:45:34.796Z,2.70
2023-05-09T18:48:02.664Z,2.60
2023-05-09T18:50:30.724Z,2.73
2023-05-09T18:52:59.844Z,2.73
2023-05-09T18:55:27.977Z,2.70
2023-05-09T18:57:56.046Z,2.50
2023-05-09T19:00:23.911Z,3.50
2023-05-09T19:02:51.676Z,2.17
2023-05-09T19:05:20.460Z,2.43
2023-05-09T19:07:48.290Z,2.07
2023-05-09T19:10:18.487Z,1.90
2023-05-09T19:12:46.635Z,2.43
2023-05-09T19:15:14.469Z,2.20
2023-05-09T19:17:42.238Z,1.80
2023-05-09T19:20:11.204Z,2.53
2023-05-09T19:22:41.179Z,2.40
2023-05-09T19:25:09.996Z,3.20
2023-05-09T19:27:39.156Z,2.10
2023-05-09T19:30:08.158Z,2.00
2023-05-09T19:32:36.166Z,1.73
2023-05-09T19:35:04.117Z,2.07
2023-05-09T19:37:32.486Z,1.80
2023-05-09T19:40:00.340Z,2.07
2023-05-09T19:42:28.883Z,2.10
2023-05-09T19:44:58.480Z,2.43
2023-05-09T19:47:26.288Z,1.97
2023-05-09T19:49:54.761Z,2.13
2023-05-09T19:52:23.294Z,2.17
2023-05-09T19:54:51.188Z,2.00
2023-05-09T19:57:19.004Z,2.17
2023-05-09T19:59:47.288Z,2.00
2023-05-09T20:02:16.342Z,1.97
2023-05-09T20:04:49.990Z,2.47
2023-05-09T20:07:18.348Z,2.50
2023-05-09T20:09:46.156Z,2.50
2023-05-09T20:12:14.681Z,2.40
2023-05-09T20:14:42.352Z,2.20
2023-05-09T20:17:10.039Z,2.43
2023-05-09T20:19:39.226Z,2.30
2023-05-09T20:22:07.135Z,2.27
2023-05-09T20:24:34.896Z,2.37
2023-05-09T20:27:03.480Z,2.30
2023-05-09T20:29:31.313Z,2.33
2023-05-09T20:31:59.050Z,2.23
2023-05-09T20:34:27.369Z,2.07
2023-05-09T20:36:56.476Z,2.60
2023-05-09T20:39:24.870Z,2.40
2023-05-09T20:41:52.639Z,2.17
2023-05-09T20:44:20.687Z,2.50
2023-05-09T20:46:48.503Z,2.07
2023-05-09T20:49:16.293Z,2.50
2023-05-09T20:51:44.065Z,2.40
2023-05-09T20:54:13.259Z,2.13
2023-05-09T20:56:40.946Z,2.33
2023-05-09T20:59:08.717Z,2.37
2023-05-09T21:01:36.800Z,2.20
2023-05-09T21:04:05.977Z,2.27
2023-05-09T21:06:34.105Z,2.80
2023-05-09T21:09:02.351Z,2.30
2023-05-09T21:11:31.506Z,1.87
2023-05-09T21:13:59.524Z,1.63
2023-05-09T21:16:28.394Z,1.60
2023-05-09T21:18:56.702Z,1.40
2023-05-09T21:21:24.470Z,1.73
2023-05-09T21:23:52.523Z,1.50
2023-05-09T21:26:21.444Z,1.67
2023-05-09T21:28:50.753Z,2.50
2023-05-09T21:31:19.830Z,2.57
2023-05-09T21:33:48.024Z,2.43
2023-05-09T21:36:15.966Z,3.00
2023-05-09T21:38:43.798Z,2.00
2023-05-09T21:41:11.919Z,2.40
2023-05-09T21:43:43.243Z,2.47
2023-05-09T21:46:13.434Z,1.90
2023-05-09T21:48:42.489Z,1.87
2023-05-09T21:51:12.371Z,2.30
2023-05-09T21:53:40.228Z,2.07
2023-05-09T21:56:09.572Z,2.50
2023-05-09T21:58:37.614Z,2.70
2023-05-09T22:01:06.581Z,2.30
2023-05-09T22:03:36.528Z,2.20
2023-05-09T22:06:04.584Z,2.50
2023-05-09T22:08:32.430Z,1.97
2023-05-09T22:11:00.637Z,2.80
2023-05-09T22:13:28.791Z,1.90
2023-05-09T22:15:56.717Z,1.50
2023-05-09T22:18:24.755Z,1.77
2023-05-09T22:20:53.888Z,2.17
2023-05-09T22:23:21.663Z,2.10
2023-05-09T22:25:49.561Z,2.07
2023-05-09T22:28:17.478Z,2.00
2023-05-09T22:30:45.716Z,1.93
2023-05-09T22:33:13.754Z,2.27
2023-05-09T22:35:41.866Z,2.10
2023-05-09T22:38:11.101Z,2.07
2023-05-09T22:40:38.922Z,2.27
2023-05-09T22:43:06.843Z,2.60
2023-05-09T22:45:34.550Z,2.53
2023-05-09T22:48:02.324Z,1.73
2023-05-09T22:50:30.071Z,2.10
2023-05-09T22:52:57.768Z,1.77
2023-05-09T22:55:26.795Z,1.80
2023-05-09T22:57:54.506Z,2.23
2023-05-09T23:00:22.547Z,2.33
2023-05-09T23:02:50.515Z,1.60
2023-05-09T23:05:18.467Z,1.80
2023-05-09T23:07:46.208Z,1.60
2023-05-09T23:10:14.355Z,1.67
2023-05-09T23:12:43.671Z,1.40
2023-05-09T23:15:11.993Z,1.67
2023-05-09T23:17:39.820Z,1.90
2023-05-09T23:20:08.757Z,2.30
2023-05-09T23:22:36.451Z,1.87
2023-05-09T23:25:04.248Z,2.13
2023-05-09T23:27:32.025Z,1.63
2023-05-09T23:30:01.121Z,1.60
2023-05-09T23:32:28.807Z,1.47
2023-05-09T23:34:56.480Z,1.20
2023-05-09T23:37:24.198Z,0.93
2023-05-09T23:39:52.003Z,1.20
2023-05-09T23:42:19.800Z,1.03
2023-05-09T23:44:47.532Z,0.93
2023-05-09T23:47:16.612Z,0.90
2023-05-09T23:49:44.356Z,0.90
2023-05-09T23:52:12.134Z,1.10
2023-05-09T23:54:39.867Z,0.70
2023-05-09T23:57:07.735Z,0.90
2023-05-09T23:59:35.474Z,0.90
